Meteo Giornale » Osservazioni meteo Stati Uniti (USA) » Eufaula
ore: 10:58 - Osservazioni Meteo Eufaula
Lat. 31° 57' N Lon. 85° 8' W Alt. 87 metri s.l.m.
31 °C
Sereno
Temp. 24 Ore
22 °C
33 °C
Sud-Est
9.3 Km/h
Dew point 22 °C
Umidità 58 %
Visibilità 10 Km
Il sole sorge alle ore 06:15
Il sole tramonta alle ore 19:06
| Data e Ora | Cielo e Fenomeni | T °C | DP °C | Um. % | Pres. hPa | Vis. km | Vento km/h | |
|---|---|---|---|---|---|---|---|---|
| Oggi h: 10:58 | Sereno | 31 | 22 | 58 | 1020 | 10 | SE 9.3 | |
| Oggi h: 09:58 | Sereno | 29 | 22 | 66 | 1020 | 10 | NE 9.3 | |
| Oggi h: 08:58 | Sereno | 27 | 22 | 74 | 1020 | 10 | E 9.3 | |
| Oggi h: 07:58 | Sereno | 25 | 22 | 83 | 1020 | 10 | E 7.4 | |
| Oggi h: 06:58 | Sereno | 23 | 22 | 94 | 1020 | 10 | N 0 | |
| Oggi h: 05:58 | Sereno | 22 | 22 | 100 | 1019 | 10 | N 0 | |
| Oggi h: 04:58 | Sereno | 23 | 22 | 94 | 1019 | 10 | NE 7.4 | |
| Oggi h: 03:58 | Sereno | 23 | 22 | 94 | 1018 | 10 | N 0 | |
| Oggi h: 02:58 | Sereno | 24 | 22 | 88 | 1018 | 10 | E/SE 7.4 | |
| Oggi h: 01:58 | Sereno | 24 | 22 | 88 | 1018 | 10 | N 5.5 | |
| Oggi h: 00:58 | Sereno | 23 | 23 | 100 | 1018 | 10 | N 0 | |
| Ieri h: 23:58 | Sereno | 23 | 23 | 100 | 1018 | 10 | N 0 | |
| Ieri h: 22:58 | Sereno | 23 | 23 | 100 | 1019 | 10 | N 0 | |
| Ieri h: 21:58 | Sereno | 24 | 23 | 94 | 1019 | 10 | N 0 | |
| Ieri h: 20:58 | Sereno | 27 | 23 | 78 | 1019 | 10 | N 0 | |
| Ieri h: 19:58 | Sereno | 28 | 22 | 69 | 1018 | 10 | E/SE 11.1 | |
| Ieri h: 18:58 | Sereno | 28 | 24 | 78 | 1018 | 10 | N 5.5 | |
| Ieri h: 17:58 | Sereno | 30 | 22 | 62 | 1017 | 10 | E 7.4 | |
| Ieri h: 16:58 | Poco Nuvoloso | 31 | 22 | 58 | 1018 | 10 | E/NE 11.1 | |
| Ieri h: 15:58 | Molto Nuvoloso | 33 | 21 | 49 | 1017 | 10 | E/NE 11.1 | |
| Ieri h: 14:58 | Sereno | 33 | 21 | 49 | 1018 | 10 | E 13 | |
| Ieri h: 13:58 | Sereno | 33 | 21 | 49 | 1019 | 10 | E/NE 13 | |
| Ieri h: 12:58 | Poco Nuvoloso | 32 | 22 | 55 | 1019 | 10 | E/SE 14.8 | |
| Ieri h: 11:58 | Sereno | 32 | 22 | 55 | 1020 | 10 | SE 11.1 | |



